createdAt,value
2023-01-17T00:02:14.725Z,49.97
2023-01-17T00:05:01.584Z,53.63
2023-01-17T00:07:51.045Z,47.70
2023-01-17T00:10:22.044Z,40.30
2023-01-17T00:12:54.069Z,42.63
2023-01-17T00:15:25.457Z,42.22
2023-01-17T00:17:55.577Z,40.00
2023-01-17T00:20:43.624Z,41.38
2023-01-17T00:23:34.899Z,38.95
2023-01-17T00:26:04.596Z,36.50
2023-01-17T00:28:34.847Z,40.17
2023-01-17T00:31:05.764Z,39.38
2023-01-17T00:33:34.794Z,37.83
2023-01-17T00:36:04.028Z,39.03
2023-01-17T00:38:34.164Z,43.45
2023-01-17T00:41:07.081Z,36.83
2023-01-17T00:43:54.297Z,39.78
2023-01-17T00:46:42.990Z,38.45
2023-01-17T00:49:30.275Z,36.33
2023-01-17T00:52:17.324Z,36.08
2023-01-17T00:55:04.325Z,42.38
2023-01-17T00:57:50.741Z,35.28
2023-01-17T01:00:38.495Z,37.38
2023-01-17T01:03:29.382Z,41.92
2023-01-17T01:06:16.730Z,34.30
2023-01-17T01:09:03.698Z,39.70
2023-01-17T01:11:50.821Z,35.72
2023-01-17T01:14:37.258Z,39.47
2023-01-17T01:17:24.241Z,41.40
2023-01-17T01:20:12.482Z,38.33
2023-01-17T01:22:59.358Z,45.22
2023-01-17T01:25:46.367Z,47.17
2023-01-17T01:28:34.250Z,48.35
2023-01-17T01:31:21.398Z,41.83
2023-01-17T01:33:52.730Z,43.55
2023-01-17T01:38:54.761Z,40.78
2023-01-17T01:41:25.040Z,41.33
2023-01-17T01:43:56.691Z,42.47
2023-01-17T01:48:58.437Z,45.25
2023-01-17T01:51:33.149Z,45.92
2023-01-17T01:54:09.143Z,44.15
2023-01-17T01:56:39.587Z,45.85
2023-01-17T01:59:12.794Z,46.58
2023-01-17T02:01:42.348Z,53.55
2023-01-17T02:04:12.465Z,47.75
2023-01-17T02:06:47.913Z,40.83
2023-01-17T02:09:19.922Z,40.13
2023-01-17T02:11:50.528Z,43.00
2023-01-17T02:16:59.237Z,38.05
2023-01-17T02:20:13.619Z,43.78
2023-01-17T02:23:24.441Z,44.60
2023-01-17T02:26:21.549Z,39.13
2023-01-17T02:29:11.317Z,41.35
2023-01-17T02:31:49.118Z,43.53
2023-01-17T02:34:22.498Z,37.28
2023-01-17T02:36:58.037Z,38.55
2023-01-17T02:39:36.180Z,35.40
2023-01-17T02:42:09.779Z,38.40
2023-01-17T02:44:43.455Z,38.78
2023-01-17T02:47:25.177Z,40.20
2023-01-17T02:49:56.445Z,44.30
2023-01-17T02:52:49.789Z,38.15
2023-01-17T02:55:28.801Z,41.10
2023-01-17T02:58:15.927Z,42.17
2023-01-17T03:00:58.173Z,42.38
2023-01-17T03:03:33.861Z,46.00
2023-01-17T03:06:11.990Z,43.40
2023-01-17T03:08:43.349Z,41.40
2023-01-17T03:11:13.898Z,46.33
2023-01-17T03:13:43.731Z,40.28
2023-01-17T03:16:17.321Z,45.00
2023-01-17T03:18:49.536Z,40.75
2023-01-17T03:21:18.848Z,49.58
2023-01-17T03:23:48.666Z,56.05
2023-01-17T03:26:18.188Z,54.92
2023-01-17T03:28:47.777Z,48.72
2023-01-17T03:31:17.608Z,50.13
2023-01-17T03:33:49.223Z,51.30
2023-01-17T03:36:19.561Z,51.40
2023-01-17T03:38:49.454Z,48.03
2023-01-17T03:41:18.854Z,51.72
2023-01-17T03:43:48.655Z,56.15
2023-01-17T03:46:22.580Z,48.20
2023-01-17T03:48:54.698Z,48.50
2023-01-17T03:51:24.185Z,52.80
2023-01-17T03:53:53.998Z,47.45
2023-01-17T03:56:23.480Z,48.67
2023-01-17T03:58:53.930Z,53.20
2023-01-17T04:01:23.891Z,57.80
2023-01-17T04:03:55.726Z,46.00
2023-01-17T04:06:25.525Z,54.40
2023-01-17T04:08:55.360Z,45.30
2023-01-17T04:11:24.618Z,49.45
2023-01-17T04:13:54.626Z,51.97
2023-01-17T04:16:28.374Z,50.00
2023-01-17T04:18:59.776Z,46.55
2023-01-17T04:23:58.459Z,48.30
2023-01-17T04:26:27.867Z,46.60
2023-01-17T04:28:57.554Z,42.63
2023-01-17T04:31:26.886Z,50.53
2023-01-17T04:33:56.526Z,41.67
2023-01-17T04:36:27.352Z,48.25
2023-01-17T04:38:56.992Z,47.05
2023-01-17T04:41:26.283Z,48.88
2023-01-17T04:43:56.175Z,50.53
2023-01-17T04:46:25.696Z,52.00
2023-01-17T04:48:55.829Z,43.38
2023-01-17T04:51:26.653Z,56.10
2023-01-17T04:53:56.429Z,44.15
2023-01-17T04:56:25.906Z,51.92
2023-01-17T04:58:59.356Z,42.93
2023-01-17T05:01:28.841Z,45.65
2023-01-17T05:03:58.560Z,50.35
2023-01-17T05:06:29.398Z,44.55
2023-01-17T05:08:59.422Z,55.47
2023-01-17T05:11:28.663Z,47.40
2023-01-17T05:13:58.581Z,46.47
2023-01-17T05:16:28.115Z,45.58
2023-01-17T05:18:57.723Z,45.53
2023-01-17T05:21:27.144Z,54.97
2023-01-17T05:23:58.706Z,47.63
2023-01-17T05:26:27.982Z,52.65
2023-01-17T05:28:57.692Z,49.00
2023-01-17T05:31:27.000Z,51.47
2023-01-17T05:33:56.606Z,52.15
2023-01-17T05:36:25.853Z,53.75
2023-01-17T05:38:55.533Z,56.25
2023-01-17T05:41:26.244Z,47.00
2023-01-17T05:46:25.004Z,57.55
2023-01-17T05:48:54.829Z,53.85
2023-01-17T05:51:24.156Z,56.65
2023-01-17T05:53:53.959Z,49.15
2023-01-17T05:56:23.560Z,46.92
2023-01-17T05:58:55.104Z,51.03
2023-01-17T06:01:24.417Z,47.40
2023-01-17T06:03:54.347Z,54.17
2023-01-17T06:06:24.098Z,54.97
2023-01-17T06:08:53.933Z,53.13
2023-01-17T06:11:23.216Z,54.25
2023-01-17T06:13:54.775Z,51.63
2023-01-17T06:16:24.206Z,54.65
2023-01-17T06:18:54.196Z,44.42
2023-01-17T06:21:23.502Z,54.47
2023-01-17T06:23:56.364Z,39.72
2023-01-17T06:26:25.622Z,47.05
2023-01-17T06:28:56.822Z,45.15
2023-01-17T06:31:26.102Z,48.05
2023-01-17T06:33:55.900Z,44.67
2023-01-17T06:36:25.618Z,46.72
2023-01-17T06:38:55.215Z,44.83
2023-01-17T06:41:26.151Z,48.63
2023-01-17T06:43:58.083Z,46.50
2023-01-17T06:46:27.538Z,53.22
2023-01-17T06:48:57.849Z,54.67
2023-01-17T06:51:28.179Z,47.65
2023-01-17T06:53:58.086Z,49.95
2023-01-17T06:56:27.342Z,51.47
2023-01-17T06:58:58.440Z,51.00
2023-01-17T07:01:27.785Z,49.60
2023-01-17T07:03:57.603Z,52.35
2023-01-17T07:06:29.061Z,50.90
2023-01-17T07:08:59.253Z,54.15
2023-01-17T07:11:29.036Z,54.70
2023-01-17T07:14:00.342Z,59.67
2023-01-17T07:16:30.301Z,57.05
2023-01-17T07:19:00.423Z,63.60
2023-01-17T07:21:29.812Z,60.28
2023-01-17T07:23:59.460Z,57.20
2023-01-17T07:26:28.742Z,53.83
2023-01-17T07:29:00.143Z,54.70
2023-01-17T07:33:58.669Z,64.03
2023-01-17T07:36:28.052Z,55.80
2023-01-17T07:38:57.795Z,57.70
2023-01-17T07:41:27.093Z,58.70
2023-01-17T07:43:56.786Z,60.05
2023-01-17T07:46:27.531Z,60.15
2023-01-17T07:48:57.235Z,61.53
2023-01-17T07:51:26.688Z,67.25
2023-01-17T07:53:56.373Z,51.97
2023-01-17T07:56:26.261Z,64.45
2023-01-17T07:58:55.965Z,69.28
2023-01-17T08:01:27.644Z,55.65
2023-01-17T08:03:57.514Z,59.85
2023-01-17T08:06:29.471Z,65.22
2023-01-17T08:08:59.785Z,60.72
2023-01-17T08:11:29.065Z,60.35
2023-01-17T08:13:59.771Z,62.47
2023-01-17T08:16:30.631Z,65.10
2023-01-17T08:19:00.322Z,57.10
2023-01-17T08:21:29.722Z,62.17
2023-01-17T08:23:59.396Z,63.20
2023-01-17T08:26:29.683Z,52.20
2023-01-17T08:29:01.767Z,60.15
2023-01-17T08:31:34.690Z,60.78
2023-01-17T08:34:04.656Z,59.58
2023-01-17T08:36:34.153Z,60.10
2023-01-17T08:39:03.878Z,60.58
2023-01-17T08:41:33.221Z,56.38
2023-01-17T08:44:03.569Z,56.17
2023-01-17T08:46:34.499Z,53.88
2023-01-17T08:49:04.675Z,52.10
2023-01-17T08:51:34.140Z,50.65
2023-01-17T08:54:03.797Z,51.90
2023-01-17T08:56:33.241Z,48.15
2023-01-17T08:59:03.455Z,50.03
2023-01-17T09:01:42.153Z,47.03
2023-01-17T09:04:12.628Z,47.97
2023-01-17T09:06:43.354Z,49.67
2023-01-17T09:11:43.483Z,53.73
2023-01-17T09:14:14.236Z,48.25
2023-01-17T09:16:45.055Z,43.63
2023-01-17T09:19:14.951Z,43.88
2023-01-17T09:21:44.829Z,49.05
2023-01-17T09:24:14.552Z,39.27
2023-01-17T09:26:43.827Z,42.35
2023-01-17T09:29:14.394Z,40.45
2023-01-17T09:31:47.329Z,40.50
2023-01-17T09:34:18.886Z,39.58
2023-01-17T09:36:48.480Z,41.67
2023-01-17T09:39:18.409Z,34.78
2023-01-17T09:41:53.648Z,40.10
2023-01-17T09:44:28.897Z,40.40
2023-01-17T09:47:06.404Z,38.42
2023-01-17T09:49:41.199Z,39.78
2023-01-17T09:52:15.509Z,37.10
2023-01-17T09:54:47.990Z,38.67
2023-01-17T09:57:30.573Z,35.38
2023-01-17T10:00:12.939Z,38.10
2023-01-17T10:03:07.254Z,36.67
2023-01-17T10:05:55.917Z,37.22
2023-01-17T10:08:45.992Z,33.25
2023-01-17T10:11:35.539Z,35.65
2023-01-17T10:14:22.233Z,33.95
2023-01-17T10:16:59.853Z,40.03
2023-01-17T10:19:42.790Z,34.92
2023-01-17T10:22:41.887Z,37.28
2023-01-17T10:25:44.774Z,33.78
2023-01-17T10:28:20.361Z,39.45
2023-01-17T10:30:52.688Z,36.60
2023-01-17T10:33:25.925Z,35.50
2023-01-17T10:35:59.490Z,38.17
2023-01-17T10:38:33.491Z,37.17
2023-01-17T10:41:07.646Z,40.33
2023-01-17T10:43:50.386Z,37.03
2023-01-17T10:46:24.311Z,33.67
2023-01-17T10:48:54.703Z,32.47
2023-01-17T10:51:51.722Z,37.72
2023-01-17T10:54:36.385Z,38.40
2023-01-17T10:57:06.001Z,32.92
2023-01-17T10:59:37.486Z,34.25
2023-01-17T11:02:20.233Z,33.50
2023-01-17T11:04:54.723Z,33.20
2023-01-17T11:07:27.253Z,31.95
2023-01-17T11:09:58.867Z,34.65
2023-01-17T11:12:31.525Z,35.95
2023-01-17T11:15:18.094Z,31.63
2023-01-17T11:17:50.281Z,32.20
2023-01-17T11:20:28.649Z,30.23
2023-01-17T11:23:13.046Z,26.25
2023-01-17T11:25:50.464Z,30.80
2023-01-17T11:28:26.464Z,27.02
2023-01-17T11:30:58.191Z,27.17
2023-01-17T11:33:54.233Z,31.63
2023-01-17T11:36:27.736Z,29.50
2023-01-17T11:39:03.750Z,25.92
2023-01-17T11:41:38.260Z,25.55
2023-01-17T11:44:23.677Z,26.10
2023-01-17T11:47:17.389Z,24.75
2023-01-17T11:49:48.521Z,28.40
2023-01-17T11:52:24.933Z,29.27
2023-01-17T11:54:56.869Z,30.25
2023-01-17T11:57:29.000Z,25.90
2023-01-17T12:00:12.474Z,26.83
2023-01-17T12:03:04.545Z,29.45
2023-01-17T12:05:42.973Z,24.90
2023-01-17T12:08:24.847Z,24.73
2023-01-17T12:11:01.596Z,23.90
2023-01-17T12:14:03.375Z,19.95
2023-01-17T12:16:58.237Z,21.58
2023-01-17T12:19:36.874Z,22.23
2023-01-17T12:22:25.507Z,22.88
2023-01-17T12:25:33.545Z,21.65
2023-01-17T12:28:24.071Z,18.58
2023-01-17T12:31:14.205Z,18.33
2023-01-17T12:33:52.490Z,20.60
2023-01-17T12:36:39.284Z,22.73
2023-01-17T12:39:12.230Z,21.40
2023-01-17T12:41:52.536Z,24.00
2023-01-17T12:44:32.222Z,16.90
2023-01-17T12:47:05.257Z,20.55
2023-01-17T12:49:42.101Z,18.20
2023-01-17T12:52:20.088Z,23.70
2023-01-17T12:54:53.312Z,20.98
2023-01-17T12:57:27.133Z,22.13
2023-01-17T13:00:04.138Z,16.00
2023-01-17T13:02:40.111Z,17.77
2023-01-17T13:05:15.912Z,16.92
2023-01-17T13:07:50.987Z,19.45
2023-01-17T13:10:27.762Z,18.27
2023-01-17T13:13:02.033Z,17.60
2023-01-17T13:15:39.009Z,15.10
2023-01-17T13:18:12.513Z,16.73
2023-01-17T13:20:59.189Z,15.55
2023-01-17T13:23:32.284Z,15.77
2023-01-17T13:26:02.762Z,16.02
2023-01-17T13:28:45.429Z,13.30
2023-01-17T13:31:46.108Z,12.57
2023-01-17T13:34:42.315Z,14.73
2023-01-17T13:37:33.725Z,13.18
2023-01-17T13:40:30.031Z,11.85
2023-01-17T13:43:01.437Z,13.82
2023-01-17T13:45:33.777Z,12.07
2023-01-17T13:48:30.376Z,9.88
2023-01-17T13:51:02.407Z,12.30
2023-01-17T13:53:59.701Z,11.70
2023-01-17T13:56:35.585Z,12.70
2023-01-17T13:59:34.698Z,10.48
2023-01-17T14:02:04.427Z,13.48
2023-01-17T14:05:06.635Z,10.30
2023-01-17T14:07:48.772Z,10.98
2023-01-17T14:10:28.979Z,11.48
2023-01-17T14:12:59.257Z,11.52
2023-01-17T14:15:29.801Z,10.35
2023-01-17T14:18:01.250Z,11.57
2023-01-17T14:23:56.342Z,18.30
2023-01-17T14:26:45.862Z,13.95
2023-01-17T14:30:04.008Z,19.55
2023-01-17T14:32:35.585Z,13.90
2023-01-17T14:35:06.696Z,13.18
2023-01-17T14:37:44.747Z,10.95
2023-01-17T14:40:26.306Z,10.77
2023-01-17T14:43:02.137Z,8.77
2023-01-17T14:45:33.822Z,10.10
2023-01-17T14:48:06.751Z,11.95
2023-01-17T14:50:40.148Z,12.95
2023-01-17T14:53:20.020Z,10.63
2023-01-17T14:55:59.488Z,14.67
2023-01-17T14:58:30.888Z,14.55
2023-01-17T15:01:03.716Z,16.38
2023-01-17T15:03:37.259Z,11.75
2023-01-17T15:06:13.851Z,12.07
2023-01-17T15:08:43.277Z,10.57
2023-01-17T15:11:22.867Z,11.70
2023-01-17T15:13:55.176Z,10.05
2023-01-17T15:16:27.071Z,10.93
2023-01-17T15:18:58.700Z,10.13
2023-01-17T15:21:30.846Z,10.52
2023-01-17T15:24:02.492Z,7.95
2023-01-17T15:26:36.673Z,7.53
2023-01-17T15:29:08.826Z,5.47
2023-01-17T15:31:44.294Z,6.70
2023-01-17T15:34:24.082Z,4.82
2023-01-17T15:36:54.419Z,6.68
2023-01-17T15:39:25.798Z,7.07
2023-01-17T15:41:58.839Z,4.63
2023-01-17T15:44:49.966Z,2.97
2023-01-17T15:47:31.456Z,3.85
2023-01-17T15:50:01.836Z,3.28
2023-01-17T15:52:31.837Z,4.60
2023-01-17T15:55:12.666Z,4.50
2023-01-17T16:00:26.641Z,4.53
2023-01-17T16:02:58.054Z,6.63
2023-01-17T16:08:38.683Z,6.18
2023-01-17T16:11:10.094Z,8.70
2023-01-17T16:13:43.595Z,8.13
2023-01-17T16:16:15.190Z,8.73
2023-01-17T16:18:46.837Z,8.25
2023-01-17T16:21:27.423Z,6.45
2023-01-17T16:23:57.275Z,9.82
2023-01-17T16:26:27.968Z,10.15
2023-01-17T16:31:28.085Z,9.13
2023-01-17T16:33:57.728Z,9.77
2023-01-17T16:36:27.191Z,8.73
2023-01-17T16:38:56.913Z,8.75
2023-01-17T16:41:26.201Z,9.88
2023-01-17T16:44:02.043Z,8.93
2023-01-17T16:46:31.658Z,10.60
2023-01-17T16:49:02.621Z,8.35
2023-01-17T16:51:32.066Z,9.38
2023-01-17T16:54:03.022Z,8.93
2023-01-17T16:56:32.555Z,9.15
2023-01-17T16:59:03.769Z,10.10
2023-01-17T17:01:33.218Z,7.55
2023-01-17T17:04:02.895Z,10.13
2023-01-17T17:06:32.727Z,10.93
2023-01-17T17:09:02.515Z,11.33
2023-01-17T17:11:31.863Z,11.27
2023-01-17T17:14:03.662Z,9.50
2023-01-17T17:16:33.179Z,7.90
2023-01-17T17:19:04.959Z,9.63
2023-01-17T17:21:35.373Z,7.35
2023-01-17T17:24:05.529Z,8.23
2023-01-17T17:26:37.043Z,8.70
2023-01-17T17:29:10.756Z,9.63
2023-01-17T17:31:41.561Z,9.98
2023-01-17T17:34:13.515Z,9.25
2023-01-17T17:36:43.198Z,9.70
2023-01-17T17:39:14.990Z,6.43
2023-01-17T17:41:45.951Z,8.90
2023-01-17T17:44:17.782Z,9.23
2023-01-17T17:46:49.492Z,8.88
2023-01-17T17:49:19.259Z,6.22
2023-01-17T17:51:48.649Z,7.78
2023-01-17T17:54:19.867Z,6.80
2023-01-17T17:56:49.346Z,4.68
2023-01-17T17:59:20.748Z,6.75
2023-01-17T18:01:50.479Z,5.05
2023-01-17T18:04:20.403Z,4.10
2023-01-17T18:06:49.763Z,4.10
2023-01-17T18:09:19.959Z,5.27
2023-01-17T18:11:49.238Z,2.95
2023-01-17T18:14:24.263Z,3.15
2023-01-17T18:16:53.773Z,3.10
2023-01-17T18:19:26.403Z,3.55
2023-01-17T18:21:55.922Z,3.13
2023-01-17T18:24:26.568Z,3.88
2023-01-17T18:26:58.168Z,1.98
2023-01-17T18:29:32.106Z,2.72
2023-01-17T18:32:01.885Z,2.58
2023-01-17T18:34:36.052Z,4.78
2023-01-17T18:37:06.708Z,3.30
2023-01-17T18:39:36.464Z,2.20
2023-01-17T18:42:06.259Z,2.58
2023-01-17T18:44:37.341Z,3.73
2023-01-17T18:47:08.111Z,3.92
2023-01-17T18:49:37.750Z,11.57
2023-01-17T18:52:08.303Z,4.47
2023-01-17T18:54:37.954Z,2.20
2023-01-17T18:57:07.283Z,5.28
2023-01-17T18:59:38.486Z,2.33
2023-01-17T19:02:09.901Z,3.15
2023-01-17T19:04:40.158Z,4.90
2023-01-17T19:07:12.581Z,2.88
2023-01-17T19:09:43.737Z,4.47
2023-01-17T19:12:13.331Z,7.35
2023-01-17T19:14:44.637Z,3.20
2023-01-17T19:17:14.235Z,2.88
2023-01-17T19:19:44.117Z,4.28
2023-01-17T19:22:14.051Z,4.45
2023-01-17T19:24:44.279Z,3.58
2023-01-17T19:27:14.248Z,3.13
2023-01-17T19:29:45.879Z,2.13
2023-01-17T19:32:15.165Z,2.72
2023-01-17T19:34:44.798Z,3.13
2023-01-17T19:37:14.327Z,4.03
2023-01-17T19:39:45.982Z,2.08
2023-01-17T19:42:16.053Z,2.33
2023-01-17T19:44:48.398Z,1.83
2023-01-17T19:47:18.188Z,4.20
2023-01-17T19:49:47.890Z,3.50
2023-01-17T19:52:18.277Z,3.40
2023-01-17T19:54:47.956Z,3.17
2023-01-17T19:57:22.555Z,2.70
2023-01-17T19:59:54.561Z,6.32
2023-01-17T20:02:23.920Z,2.80
2023-01-17T20:04:53.633Z,3.88
2023-01-17T20:07:23.135Z,2.60
2023-01-17T20:09:53.309Z,2.88
2023-01-17T20:12:22.607Z,2.25
2023-01-17T20:14:54.781Z,4.78
2023-01-17T20:17:24.236Z,3.65
2023-01-17T20:19:54.006Z,2.55
2023-01-17T20:22:23.400Z,2.85
2023-01-17T20:24:53.307Z,2.40
2023-01-17T20:27:26.772Z,3.42
2023-01-17T20:30:05.381Z,5.35
2023-01-17T20:32:44.095Z,2.50
2023-01-17T20:35:14.379Z,4.32
2023-01-17T20:37:43.620Z,2.60
2023-01-17T20:40:16.894Z,4.63
2023-01-17T20:42:46.292Z,5.68
2023-01-17T20:45:18.006Z,2.80
2023-01-17T20:47:47.323Z,3.13
2023-01-17T20:50:17.759Z,4.55
2023-01-17T20:52:48.731Z,6.43
2023-01-17T20:55:18.474Z,4.38
2023-01-17T20:57:47.881Z,3.45
2023-01-17T21:00:24.543Z,6.07
2023-01-17T21:02:54.069Z,5.25
2023-01-17T21:05:24.176Z,5.10
2023-01-17T21:07:54.039Z,4.07
2023-01-17T21:10:24.251Z,5.50
2023-01-17T21:12:53.537Z,4.65
2023-01-17T21:15:25.284Z,4.05
2023-01-17T21:17:55.122Z,5.25
2023-01-17T21:20:27.626Z,5.30
2023-01-17T21:22:56.910Z,5.03
2023-01-17T21:25:27.603Z,4.57
2023-01-17T21:27:57.307Z,5.75
2023-01-17T21:30:29.386Z,5.00
2023-01-17T21:32:58.791Z,4.15
2023-01-17T21:35:30.608Z,6.28
2023-01-17T21:38:00.101Z,5.53
2023-01-17T21:40:29.905Z,3.85
2023-01-17T21:42:59.202Z,3.28
2023-01-17T21:45:32.264Z,5.45
2023-01-17T21:48:02.605Z,2.92
2023-01-17T21:53:04.719Z,3.22
2023-01-17T21:55:51.599Z,6.47
2023-01-17T21:58:38.128Z,4.78
2023-01-17T22:01:16.174Z,4.88
2023-01-17T22:03:46.742Z,6.15
2023-01-17T22:06:16.974Z,4.03
2023-01-17T22:08:46.586Z,7.95
2023-01-17T22:11:18.499Z,3.95
2023-01-17T22:13:47.930Z,4.35
2023-01-17T22:16:21.251Z,4.03
2023-01-17T22:18:50.706Z,6.32
2023-01-17T22:21:21.828Z,2.70
2023-01-17T22:23:53.097Z,3.63
2023-01-17T22:26:24.169Z,5.00
2023-01-17T22:28:54.189Z,4.18
2023-01-17T22:31:27.311Z,4.32
2023-01-17T22:33:58.245Z,3.45
2023-01-17T22:36:28.590Z,11.40
2023-01-17T22:38:58.392Z,6.50
2023-01-17T22:41:31.462Z,4.07
2023-01-17T22:44:02.741Z,6.25
2023-01-17T22:46:35.826Z,3.72
2023-01-17T22:49:06.189Z,2.88
2023-01-17T22:51:35.898Z,4.50
2023-01-17T22:54:05.215Z,3.00
2023-01-17T22:56:35.461Z,5.93
2023-01-17T22:59:08.241Z,8.65
2023-01-17T23:01:40.960Z,7.18
2023-01-17T23:04:14.666Z,4.35
2023-01-17T23:06:44.453Z,5.97
2023-01-17T23:09:17.444Z,11.95
2023-01-17T23:11:51.002Z,5.82
2023-01-17T23:14:22.197Z,9.93
2023-01-17T23:17:12.121Z,7.50
2023-01-17T23:19:43.492Z,7.35
2023-01-17T23:22:17.731Z,8.10
2023-01-17T23:24:50.181Z,6.68
2023-01-17T23:27:39.750Z,5.97
2023-01-17T23:30:12.517Z,9.02
2023-01-17T23:32:46.847Z,11.50
2023-01-17T23:35:16.777Z,10.23
2023-01-17T23:38:03.860Z,10.50
2023-01-17T23:40:34.199Z,8.38
2023-01-17T23:43:20.984Z,9.73
2023-01-17T23:45:50.960Z,8.35
2023-01-17T23:48:24.909Z,9.80
2023-01-17T23:50:58.242Z,8.10
2023-01-17T23:53:28.356Z,7.20
2023-01-17T23:55:59.793Z,8.75
2023-01-17T23:58:29.987Z,8.82
